sensor_id;sensor_type;location;lat;lon;timestamp;P1;durP1;ratioP1;P2;durP2;ratioP2
16880;SDS011;8557;52.068;5.198;2022-08-19T00:00:30;6.28;;;5.40;;
16880;SDS011;8557;52.068;5.198;2022-08-19T00:02:57;6.63;;;5.10;;
16880;SDS011;8557;52.068;5.198;2022-08-19T00:05:23;5.80;;;5.10;;
16880;SDS011;8557;52.068;5.198;2022-08-19T00:07:50;6.15;;;5.25;;
16880;SDS011;8557;52.068;5.198;2022-08-19T00:10:17;5.50;;;5.00;;
16880;SDS011;8557;52.068;5.198;2022-08-19T00:12:45;6.45;;;5.30;;
16880;SDS011;8557;52.068;5.198;2022-08-19T00:15:15;5.85;;;5.35;;
16880;SDS011;8557;52.068;5.198;2022-08-19T00:17:44;5.88;;;5.38;;
16880;SDS011;8557;52.068;5.198;2022-08-19T00:20:18;5.93;;;5.43;;
16880;SDS011;8557;52.068;5.198;2022-08-19T00:22:46;7.28;;;6.57;;
16880;SDS011;8557;52.068;5.198;2022-08-19T00:25:14;8.30;;;7.57;;
16880;SDS011;8557;52.068;5.198;2022-08-19T00:27:41;8.25;;;7.45;;
16880;SDS011;8557;52.068;5.198;2022-08-19T00:30:08;7.72;;;7.05;;
16880;SDS011;8557;52.068;5.198;2022-08-19T00:32:37;8.35;;;7.55;;
16880;SDS011;8557;52.068;5.198;2022-08-19T00:35:05;8.18;;;7.55;;
16880;SDS011;8557;52.068;5.198;2022-08-19T00:37:32;9.88;;;8.88;;
16880;SDS011;8557;52.068;5.198;2022-08-19T00:40:00;9.50;;;8.60;;
16880;SDS011;8557;52.068;5.198;2022-08-19T00:42:28;9.80;;;9.00;;
16880;SDS011;8557;52.068;5.198;2022-08-19T00:44:55;10.05;;;9.18;;
16880;SDS011;8557;52.068;5.198;2022-08-19T00:47:22;9.80;;;8.90;;
16880;SDS011;8557;52.068;5.198;2022-08-19T00:49:53;9.73;;;8.15;;
16880;SDS011;8557;52.068;5.198;2022-08-19T00:52:23;10.32;;;9.32;;
16880;SDS011;8557;52.068;5.198;2022-08-19T00:54:53;9.70;;;8.68;;
16880;SDS011;8557;52.068;5.198;2022-08-19T00:57:23;10.15;;;9.25;;
16880;SDS011;8557;52.068;5.198;2022-08-19T00:59:54;11.52;;;9.35;;
16880;SDS011;8557;52.068;5.198;2022-08-19T01:02:23;8.85;;;8.15;;
16880;SDS011;8557;52.068;5.198;2022-08-19T01:04:52;9.63;;;8.82;;
16880;SDS011;8557;52.068;5.198;2022-08-19T01:07:19;9.38;;;8.57;;
16880;SDS011;8557;52.068;5.198;2022-08-19T01:09:46;8.73;;;7.93;;
16880;SDS011;8557;52.068;5.198;2022-08-19T01:12:13;9.20;;;8.00;;
16880;SDS011;8557;52.068;5.198;2022-08-19T01:14:41;8.57;;;7.68;;
16880;SDS011;8557;52.068;5.198;2022-08-19T01:17:08;8.38;;;7.68;;
16880;SDS011;8557;52.068;5.198;2022-08-19T01:19:36;8.60;;;7.72;;
16880;SDS011;8557;52.068;5.198;2022-08-19T01:22:08;8.05;;;7.28;;
16880;SDS011;8557;52.068;5.198;2022-08-19T01:24:42;8.32;;;7.63;;
16880;SDS011;8557;52.068;5.198;2022-08-19T01:27:09;7.45;;;6.75;;
16880;SDS011;8557;52.068;5.198;2022-08-19T01:29:37;7.05;;;6.50;;
16880;SDS011;8557;52.068;5.198;2022-08-19T01:32:05;6.32;;;5.75;;
16880;SDS011;8557;52.068;5.198;2022-08-19T01:34:33;6.57;;;5.97;;
16880;SDS011;8557;52.068;5.198;2022-08-19T01:37:01;7.05;;;6.40;;
16880;SDS011;8557;52.068;5.198;2022-08-19T01:39:35;6.65;;;6.15;;
16880;SDS011;8557;52.068;5.198;2022-08-19T01:42:05;6.75;;;6.15;;
16880;SDS011;8557;52.068;5.198;2022-08-19T01:44:34;8.20;;;7.40;;
16880;SDS011;8557;52.068;5.198;2022-08-19T01:47:01;7.75;;;7.05;;
16880;SDS011;8557;52.068;5.198;2022-08-19T01:49:29;8.85;;;7.88;;
16880;SDS011;8557;52.068;5.198;2022-08-19T01:51:56;9.43;;;8.35;;
16880;SDS011;8557;52.068;5.198;2022-08-19T01:54:23;9.27;;;8.43;;
16880;SDS011;8557;52.068;5.198;2022-08-19T01:56:50;8.93;;;8.13;;
16880;SDS011;8557;52.068;5.198;2022-08-19T01:59:20;9.73;;;8.77;;
16880;SDS011;8557;52.068;5.198;2022-08-19T02:01:48;10.02;;;9.02;;
16880;SDS011;8557;52.068;5.198;2022-08-19T02:04:15;9.88;;;8.88;;
16880;SDS011;8557;52.068;5.198;2022-08-19T02:06:42;10.75;;;9.65;;
16880;SDS011;8557;52.068;5.198;2022-08-19T02:09:09;9.80;;;8.82;;
16880;SDS011;8557;52.068;5.198;2022-08-19T02:11:36;9.77;;;8.88;;
16880;SDS011;8557;52.068;5.198;2022-08-19T02:14:05;10.10;;;9.10;;
16880;SDS011;8557;52.068;5.198;2022-08-19T02:16:34;10.52;;;9.52;;
16880;SDS011;8557;52.068;5.198;2022-08-19T02:19:02;10.15;;;9.25;;
16880;SDS011;8557;52.068;5.198;2022-08-19T02:21:30;10.95;;;9.90;;
16880;SDS011;8557;52.068;5.198;2022-08-19T02:23:57;11.43;;;10.40;;
16880;SDS011;8557;52.068;5.198;2022-08-19T02:26:24;9.70;;;8.88;;
16880;SDS011;8557;52.068;5.198;2022-08-19T02:28:52;10.25;;;9.35;;
16880;SDS011;8557;52.068;5.198;2022-08-19T02:31:21;9.50;;;8.60;;
16880;SDS011;8557;52.068;5.198;2022-08-19T02:33:50;10.15;;;9.25;;
16880;SDS011;8557;52.068;5.198;2022-08-19T02:36:18;9.52;;;8.63;;
16880;SDS011;8557;52.068;5.198;2022-08-19T02:38:44;9.80;;;8.80;;
16880;SDS011;8557;52.068;5.198;2022-08-19T02:41:11;8.93;;;8.13;;
16880;SDS011;8557;52.068;5.198;2022-08-19T02:43:40;9.73;;;8.20;;
16880;SDS011;8557;52.068;5.198;2022-08-19T02:46:14;9.68;;;8.77;;
16880;SDS011;8557;52.068;5.198;2022-08-19T02:48:43;10.93;;;9.82;;
16880;SDS011;8557;52.068;5.198;2022-08-19T02:51:16;11.25;;;10.15;;
16880;SDS011;8557;52.068;5.198;2022-08-19T02:53:44;13.13;;;10.15;;
16880;SDS011;8557;52.068;5.198;2022-08-19T02:56:11;11.30;;;9.98;;
16880;SDS011;8557;52.068;5.198;2022-08-19T02:58:37;9.93;;;8.93;;
16880;SDS011;8557;52.068;5.198;2022-08-19T03:01:04;9.40;;;8.50;;
16880;SDS011;8557;52.068;5.198;2022-08-19T03:03:31;11.82;;;10.68;;
16880;SDS011;8557;52.068;5.198;2022-08-19T03:06:10;10.93;;;9.93;;
16880;SDS011;8557;52.068;5.198;2022-08-19T03:08:40;11.18;;;10.05;;
16880;SDS011;8557;52.068;5.198;2022-08-19T03:11:12;11.60;;;10.50;;
16880;SDS011;8557;52.068;5.198;2022-08-19T03:13:39;11.30;;;10.10;;
16880;SDS011;8557;52.068;5.198;2022-08-19T03:16:08;11.50;;;10.20;;
16880;SDS011;8557;52.068;5.198;2022-08-19T03:18:35;12.23;;;10.95;;
16880;SDS011;8557;52.068;5.198;2022-08-19T03:21:02;12.05;;;10.85;;
16880;SDS011;8557;52.068;5.198;2022-08-19T03:23:29;11.95;;;10.75;;
16880;SDS011;8557;52.068;5.198;2022-08-19T03:25:57;12.75;;;11.25;;
16880;SDS011;8557;52.068;5.198;2022-08-19T03:28:25;11.82;;;10.73;;
16880;SDS011;8557;52.068;5.198;2022-08-19T03:30:56;11.80;;;10.60;;
16880;SDS011;8557;52.068;5.198;2022-08-19T03:33:25;12.38;;;10.85;;
16880;SDS011;8557;52.068;5.198;2022-08-19T03:36:00;12.75;;;9.93;;
16880;SDS011;8557;52.068;5.198;2022-08-19T03:38:28;10.85;;;9.75;;
16880;SDS011;8557;52.068;5.198;2022-08-19T03:40:54;12.15;;;10.57;;
16880;SDS011;8557;52.068;5.198;2022-08-19T03:43:23;12.07;;;10.73;;
16880;SDS011;8557;52.068;5.198;2022-08-19T03:45:58;12.80;;;10.75;;
16880;SDS011;8557;52.068;5.198;2022-08-19T03:48:27;12.35;;;11.02;;
16880;SDS011;8557;52.068;5.198;2022-08-19T03:50:55;11.70;;;10.60;;
16880;SDS011;8557;52.068;5.198;2022-08-19T03:53:23;12.05;;;10.85;;
16880;SDS011;8557;52.068;5.198;2022-08-19T03:55:52;11.70;;;10.25;;
16880;SDS011;8557;52.068;5.198;2022-08-19T03:58:19;11.32;;;10.20;;
16880;SDS011;8557;52.068;5.198;2022-08-19T04:00:47;12.82;;;11.05;;
16880;SDS011;8557;52.068;5.198;2022-08-19T04:03:14;11.73;;;10.52;;
16880;SDS011;8557;52.068;5.198;2022-08-19T04:05:41;13.02;;;11.07;;
16880;SDS011;8557;52.068;5.198;2022-08-19T04:08:08;13.32;;;11.10;;
16880;SDS011;8557;52.068;5.198;2022-08-19T04:10:35;14.73;;;13.10;;
16880;SDS011;8557;52.068;5.198;2022-08-19T04:13:02;14.13;;;12.43;;
16880;SDS011;8557;52.068;5.198;2022-08-19T04:15:30;14.00;;;12.60;;
16880;SDS011;8557;52.068;5.198;2022-08-19T04:18:02;15.30;;;12.43;;
16880;SDS011;8557;52.068;5.198;2022-08-19T04:20:31;16.13;;;13.57;;
16880;SDS011;8557;52.068;5.198;2022-08-19T04:22:57;15.52;;;13.73;;
16880;SDS011;8557;52.068;5.198;2022-08-19T04:25:24;16.00;;;14.07;;
16880;SDS011;8557;52.068;5.198;2022-08-19T04:27:51;16.83;;;14.90;;
16880;SDS011;8557;52.068;5.198;2022-08-19T04:30:18;17.65;;;15.15;;
16880;SDS011;8557;52.068;5.198;2022-08-19T04:32:47;16.13;;;14.43;;
16880;SDS011;8557;52.068;5.198;2022-08-19T04:35:16;16.17;;;14.27;;
16880;SDS011;8557;52.068;5.198;2022-08-19T04:37:43;17.17;;;15.10;;
16880;SDS011;8557;52.068;5.198;2022-08-19T04:40:10;20.45;;;15.95;;
16880;SDS011;8557;52.068;5.198;2022-08-19T04:42:54;16.67;;;14.93;;
16880;SDS011;8557;52.068;5.198;2022-08-19T04:45:21;19.67;;;17.13;;
16880;SDS011;8557;52.068;5.198;2022-08-19T04:47:48;18.65;;;16.65;;
16880;SDS011;8557;52.068;5.198;2022-08-19T04:50:16;21.27;;;17.95;;
16880;SDS011;8557;52.068;5.198;2022-08-19T04:52:43;19.60;;;16.70;;
16880;SDS011;8557;52.068;5.198;2022-08-19T04:55:10;20.65;;;17.90;;
16880;SDS011;8557;52.068;5.198;2022-08-19T04:57:37;21.98;;;18.50;;
16880;SDS011;8557;52.068;5.198;2022-08-19T05:00:05;23.42;;;19.45;;
16880;SDS011;8557;52.068;5.198;2022-08-19T05:02:33;21.50;;;17.88;;
16880;SDS011;8557;52.068;5.198;2022-08-19T05:05:00;23.38;;;18.73;;
16880;SDS011;8557;52.068;5.198;2022-08-19T05:07:28;20.35;;;17.40;;
16880;SDS011;8557;52.068;5.198;2022-08-19T05:09:55;21.25;;;17.88;;
16880;SDS011;8557;52.068;5.198;2022-08-19T05:12:22;22.35;;;18.13;;
16880;SDS011;8557;52.068;5.198;2022-08-19T05:14:49;21.52;;;17.98;;
16880;SDS011;8557;52.068;5.198;2022-08-19T05:17:16;19.83;;;17.33;;
16880;SDS011;8557;52.068;5.198;2022-08-19T05:19:43;23.85;;;17.95;;
16880;SDS011;8557;52.068;5.198;2022-08-19T05:22:29;22.50;;;18.45;;
16880;SDS011;8557;52.068;5.198;2022-08-19T05:25:01;20.98;;;17.90;;
16880;SDS011;8557;52.068;5.198;2022-08-19T05:27:30;19.00;;;17.00;;
16880;SDS011;8557;52.068;5.198;2022-08-19T05:29:57;18.63;;;16.35;;
16880;SDS011;8557;52.068;5.198;2022-08-19T05:32:24;17.58;;;15.60;;
16880;SDS011;8557;52.068;5.198;2022-08-19T05:34:51;18.40;;;16.10;;
16880;SDS011;8557;52.068;5.198;2022-08-19T05:37:18;17.80;;;15.35;;
16880;SDS011;8557;52.068;5.198;2022-08-19T05:39:47;19.27;;;16.20;;
16880;SDS011;8557;52.068;5.198;2022-08-19T05:42:14;16.08;;;14.38;;
16880;SDS011;8557;52.068;5.198;2022-08-19T05:44:42;16.92;;;15.13;;
16880;SDS011;8557;52.068;5.198;2022-08-19T05:47:10;18.88;;;16.88;;
16880;SDS011;8557;52.068;5.198;2022-08-19T05:49:38;21.08;;;17.67;;
16880;SDS011;8557;52.068;5.198;2022-08-19T05:52:05;25.38;;;19.17;;
16880;SDS011;8557;52.068;5.198;2022-08-19T05:54:34;21.35;;;18.65;;
16880;SDS011;8557;52.068;5.198;2022-08-19T05:57:04;26.17;;;20.15;;
16880;SDS011;8557;52.068;5.198;2022-08-19T05:59:30;12.27;;;10.98;;
16880;SDS011;8557;52.068;5.198;2022-08-19T06:02:00;25.63;;;19.58;;
16880;SDS011;8557;52.068;5.198;2022-08-19T06:04:28;33.17;;;23.63;;
16880;SDS011;8557;52.068;5.198;2022-08-19T06:06:55;34.92;;;25.20;;
16880;SDS011;8557;52.068;5.198;2022-08-19T06:09:22;38.72;;;26.67;;
16880;SDS011;8557;52.068;5.198;2022-08-19T06:11:50;39.55;;;27.58;;
16880;SDS011;8557;52.068;5.198;2022-08-19T06:14:21;36.22;;;26.65;;
16880;SDS011;8557;52.068;5.198;2022-08-19T06:16:50;39.20;;;27.95;;
16880;SDS011;8557;52.068;5.198;2022-08-19T06:19:17;43.00;;;29.05;;
16880;SDS011;8557;52.068;5.198;2022-08-19T06:21:48;45.95;;;29.27;;
16880;SDS011;8557;52.068;5.198;2022-08-19T06:24:16;44.45;;;28.35;;
16880;SDS011;8557;52.068;5.198;2022-08-19T06:26:45;47.50;;;30.10;;
16880;SDS011;8557;52.068;5.198;2022-08-19T06:29:14;43.95;;;29.27;;
16880;SDS011;8557;52.068;5.198;2022-08-19T06:31:44;50.88;;;32.40;;
16880;SDS011;8557;52.068;5.198;2022-08-19T06:34:16;50.22;;;33.17;;
16880;SDS011;8557;52.068;5.198;2022-08-19T06:36:45;50.42;;;31.48;;
16880;SDS011;8557;52.068;5.198;2022-08-19T06:39:14;50.00;;;32.88;;
16880;SDS011;8557;52.068;5.198;2022-08-19T06:41:46;50.55;;;33.38;;
16880;SDS011;8557;52.068;5.198;2022-08-19T06:44:14;53.15;;;33.80;;
16880;SDS011;8557;52.068;5.198;2022-08-19T06:46:42;45.90;;;31.83;;
16880;SDS011;8557;52.068;5.198;2022-08-19T06:49:10;48.50;;;34.30;;
16880;SDS011;8557;52.068;5.198;2022-08-19T06:51:39;42.67;;;29.83;;
16880;SDS011;8557;52.068;5.198;2022-08-19T06:54:07;44.78;;;30.73;;
16880;SDS011;8557;52.068;5.198;2022-08-19T06:56:34;46.15;;;31.48;;
16880;SDS011;8557;52.068;5.198;2022-08-19T06:59:02;41.28;;;30.10;;
16880;SDS011;8557;52.068;5.198;2022-08-19T07:01:33;38.83;;;28.40;;
16880;SDS011;8557;52.068;5.198;2022-08-19T07:04:04;41.95;;;30.23;;
16880;SDS011;8557;52.068;5.198;2022-08-19T07:06:31;42.10;;;29.85;;
16880;SDS011;8557;52.068;5.198;2022-08-19T07:08:58;45.28;;;30.63;;
16880;SDS011;8557;52.068;5.198;2022-08-19T07:11:25;42.60;;;29.63;;
16880;SDS011;8557;52.068;5.198;2022-08-19T07:13:53;39.55;;;28.02;;
16880;SDS011;8557;52.068;5.198;2022-08-19T07:16:20;38.13;;;28.00;;
16880;SDS011;8557;52.068;5.198;2022-08-19T07:18:47;36.63;;;24.90;;
16880;SDS011;8557;52.068;5.198;2022-08-19T07:21:16;46.70;;;30.40;;
16880;SDS011;8557;52.068;5.198;2022-08-19T07:23:45;39.72;;;28.77;;
16880;SDS011;8557;52.068;5.198;2022-08-19T07:26:13;41.00;;;29.67;;
16880;SDS011;8557;52.068;5.198;2022-08-19T07:28:42;36.53;;;26.27;;
16880;SDS011;8557;52.068;5.198;2022-08-19T07:31:10;39.38;;;28.73;;
16880;SDS011;8557;52.068;5.198;2022-08-19T07:33:38;36.70;;;26.30;;
16880;SDS011;8557;52.068;5.198;2022-08-19T07:36:06;39.67;;;27.92;;
16880;SDS011;8557;52.068;5.198;2022-08-19T07:38:38;38.83;;;27.83;;
16880;SDS011;8557;52.068;5.198;2022-08-19T07:41:08;39.45;;;28.90;;
16880;SDS011;8557;52.068;5.198;2022-08-19T07:43:35;34.72;;;25.58;;
16880;SDS011;8557;52.068;5.198;2022-08-19T07:46:02;35.55;;;24.58;;
16880;SDS011;8557;52.068;5.198;2022-08-19T07:48:29;35.70;;;25.20;;
16880;SDS011;8557;52.068;5.198;2022-08-19T07:50:58;35.00;;;24.27;;
16880;SDS011;8557;52.068;5.198;2022-08-19T07:53:27;31.15;;;23.30;;
16880;SDS011;8557;52.068;5.198;2022-08-19T07:55:57;30.15;;;23.48;;
16880;SDS011;8557;52.068;5.198;2022-08-19T07:58:29;33.78;;;24.25;;
16880;SDS011;8557;52.068;5.198;2022-08-19T08:00:57;32.05;;;23.05;;
16880;SDS011;8557;52.068;5.198;2022-08-19T08:03:26;33.33;;;24.08;;
16880;SDS011;8557;52.068;5.198;2022-08-19T08:06:08;32.30;;;23.13;;
16880;SDS011;8557;52.068;5.198;2022-08-19T08:08:53;29.38;;;22.30;;
16880;SDS011;8557;52.068;5.198;2022-08-19T08:11:45;33.92;;;24.85;;
16880;SDS011;8557;52.068;5.198;2022-08-19T08:14:14;30.40;;;22.50;;
16880;SDS011;8557;52.068;5.198;2022-08-19T08:16:43;36.28;;;23.85;;
16880;SDS011;8557;52.068;5.198;2022-08-19T08:19:11;30.75;;;24.60;;
16880;SDS011;8557;52.068;5.198;2022-08-19T08:21:39;35.25;;;25.65;;
16880;SDS011;8557;52.068;5.198;2022-08-19T08:24:06;35.15;;;26.42;;
16880;SDS011;8557;52.068;5.198;2022-08-19T08:26:33;36.85;;;26.73;;
16880;SDS011;8557;52.068;5.198;2022-08-19T08:29:01;33.63;;;26.58;;
16880;SDS011;8557;52.068;5.198;2022-08-19T08:31:28;39.60;;;27.60;;
16880;SDS011;8557;52.068;5.198;2022-08-19T08:33:55;35.55;;;26.95;;
16880;SDS011;8557;52.068;5.198;2022-08-19T08:36:22;36.60;;;27.40;;
16880;SDS011;8557;52.068;5.198;2022-08-19T08:38:50;33.92;;;24.88;;
16880;SDS011;8557;52.068;5.198;2022-08-19T08:41:20;35.53;;;25.52;;
16880;SDS011;8557;52.068;5.198;2022-08-19T08:43:53;35.25;;;24.48;;
16880;SDS011;8557;52.068;5.198;2022-08-19T08:46:23;33.28;;;23.92;;
16880;SDS011;8557;52.068;5.198;2022-08-19T08:48:56;33.45;;;22.35;;
16880;SDS011;8557;52.068;5.198;2022-08-19T08:51:29;31.88;;;22.55;;
16880;SDS011;8557;52.068;5.198;2022-08-19T08:54:01;29.65;;;21.73;;
16880;SDS011;8557;52.068;5.198;2022-08-19T08:56:31;25.52;;;20.13;;
16880;SDS011;8557;52.068;5.198;2022-08-19T08:58:59;27.52;;;20.40;;
16880;SDS011;8557;52.068;5.198;2022-08-19T09:01:34;23.00;;;18.92;;
16880;SDS011;8557;52.068;5.198;2022-08-19T09:04:02;24.92;;;19.63;;
16880;SDS011;8557;52.068;5.198;2022-08-19T09:06:32;30.27;;;22.00;;
16880;SDS011;8557;52.068;5.198;2022-08-19T09:09:10;28.55;;;22.40;;
16880;SDS011;8557;52.068;5.198;2022-08-19T09:11:44;28.17;;;20.92;;
16880;SDS011;8557;52.068;5.198;2022-08-19T09:14:30;27.15;;;20.65;;
16880;SDS011;8557;52.068;5.198;2022-08-19T09:17:02;25.65;;;21.13;;
16880;SDS011;8557;52.068;5.198;2022-08-19T09:19:33;31.58;;;22.38;;
16880;SDS011;8557;52.068;5.198;2022-08-19T09:22:00;29.00;;;21.13;;
16880;SDS011;8557;52.068;5.198;2022-08-19T09:24:27;30.00;;;22.45;;
16880;SDS011;8557;52.068;5.198;2022-08-19T09:26:54;27.83;;;23.08;;
16880;SDS011;8557;52.068;5.198;2022-08-19T09:29:20;26.42;;;21.23;;
16880;SDS011;8557;52.068;5.198;2022-08-19T09:31:47;28.67;;;23.02;;
16880;SDS011;8557;52.068;5.198;2022-08-19T09:34:16;24.42;;;21.05;;
16880;SDS011;8557;52.068;5.198;2022-08-19T09:36:44;21.85;;;19.52;;
16880;SDS011;8557;52.068;5.198;2022-08-19T09:39:11;26.63;;;22.20;;
16880;SDS011;8557;52.068;5.198;2022-08-19T09:41:38;29.05;;;23.40;;
16880;SDS011;8557;52.068;5.198;2022-08-19T09:44:04;32.38;;;24.80;;
16880;SDS011;8557;52.068;5.198;2022-08-19T09:46:31;25.58;;;20.65;;
16880;SDS011;8557;52.068;5.198;2022-08-19T09:48:58;34.53;;;25.40;;
16880;SDS011;8557;52.068;5.198;2022-08-19T09:51:27;29.98;;;24.17;;
16880;SDS011;8557;52.068;5.198;2022-08-19T09:53:54;31.95;;;25.00;;
16880;SDS011;8557;52.068;5.198;2022-08-19T09:56:25;29.05;;;24.90;;
16880;SDS011;8557;52.068;5.198;2022-08-19T09:58:51;33.15;;;25.73;;
16880;SDS011;8557;52.068;5.198;2022-08-19T10:01:19;29.15;;;25.33;;
16880;SDS011;8557;52.068;5.198;2022-08-19T10:03:47;26.70;;;23.38;;
16880;SDS011;8557;52.068;5.198;2022-08-19T10:06:15;33.25;;;27.02;;
16880;SDS011;8557;52.068;5.198;2022-08-19T10:08:44;30.15;;;25.23;;
16880;SDS011;8557;52.068;5.198;2022-08-19T10:11:12;29.73;;;26.42;;
16880;SDS011;8557;52.068;5.198;2022-08-19T10:13:41;34.60;;;28.00;;
16880;SDS011;8557;52.068;5.198;2022-08-19T10:16:09;34.20;;;27.10;;
16880;SDS011;8557;52.068;5.198;2022-08-19T10:18:38;34.05;;;28.02;;
16880;SDS011;8557;52.068;5.198;2022-08-19T10:21:09;32.80;;;27.02;;
16880;SDS011;8557;52.068;5.198;2022-08-19T10:23:39;35.92;;;28.38;;
16880;SDS011;8557;52.068;5.198;2022-08-19T10:26:11;33.60;;;28.95;;
16880;SDS011;8557;52.068;5.198;2022-08-19T10:28:39;31.08;;;26.50;;
16880;SDS011;8557;52.068;5.198;2022-08-19T10:31:06;27.67;;;24.42;;
16880;SDS011;8557;52.068;5.198;2022-08-19T10:33:36;37.20;;;27.63;;
16880;SDS011;8557;52.068;5.198;2022-08-19T10:36:04;33.92;;;25.70;;
16880;SDS011;8557;52.068;5.198;2022-08-19T10:38:33;37.53;;;29.38;;
16880;SDS011;8557;52.068;5.198;2022-08-19T10:41:06;33.63;;;27.00;;
16880;SDS011;8557;52.068;5.198;2022-08-19T10:43:35;37.42;;;26.48;;
16880;SDS011;8557;52.068;5.198;2022-08-19T10:46:03;31.05;;;27.60;;
16880;SDS011;8557;52.068;5.198;2022-08-19T10:48:30;38.53;;;27.63;;
16880;SDS011;8557;52.068;5.198;2022-08-19T10:50:57;35.28;;;26.50;;
16880;SDS011;8557;52.068;5.198;2022-08-19T10:53:42;28.95;;;23.42;;
16880;SDS011;8557;52.068;5.198;2022-08-19T10:56:09;34.15;;;25.88;;
16880;SDS011;8557;52.068;5.198;2022-08-19T10:58:55;35.13;;;27.63;;
16880;SDS011;8557;52.068;5.198;2022-08-19T11:01:23;34.40;;;25.52;;
16880;SDS011;8557;52.068;5.198;2022-08-19T11:03:49;32.83;;;26.58;;
16880;SDS011;8557;52.068;5.198;2022-08-19T11:06:17;28.23;;;22.10;;
16880;SDS011;8557;52.068;5.198;2022-08-19T11:08:45;33.35;;;25.60;;
16880;SDS011;8557;52.068;5.198;2022-08-19T11:11:12;34.58;;;26.42;;
16880;SDS011;8557;52.068;5.198;2022-08-19T11:13:39;28.80;;;25.60;;
16880;SDS011;8557;52.068;5.198;2022-08-19T11:16:09;28.95;;;24.08;;
16880;SDS011;8557;52.068;5.198;2022-08-19T11:18:39;27.42;;;23.70;;
16880;SDS011;8557;52.068;5.198;2022-08-19T11:21:09;25.38;;;21.95;;
16880;SDS011;8557;52.068;5.198;2022-08-19T11:23:38;27.83;;;23.50;;
16880;SDS011;8557;52.068;5.198;2022-08-19T11:26:05;29.30;;;24.67;;
16880;SDS011;8557;52.068;5.198;2022-08-19T11:28:32;32.78;;;27.35;;
16880;SDS011;8557;52.068;5.198;2022-08-19T11:30:59;30.20;;;26.20;;
16880;SDS011;8557;52.068;5.198;2022-08-19T11:33:29;28.48;;;23.65;;
16880;SDS011;8557;52.068;5.198;2022-08-19T11:35:57;30.98;;;25.85;;
16880;SDS011;8557;52.068;5.198;2022-08-19T11:38:25;31.00;;;27.00;;
16880;SDS011;8557;52.068;5.198;2022-08-19T11:40:56;27.50;;;23.70;;
16880;SDS011;8557;52.068;5.198;2022-08-19T11:43:24;32.38;;;28.88;;
16880;SDS011;8557;52.068;5.198;2022-08-19T11:45:51;34.65;;;28.90;;
16880;SDS011;8557;52.068;5.198;2022-08-19T11:48:18;32.42;;;27.17;;
16880;SDS011;8557;52.068;5.198;2022-08-19T11:50:48;29.23;;;25.27;;
16880;SDS011;8557;52.068;5.198;2022-08-19T11:53:15;30.42;;;26.20;;
16880;SDS011;8557;52.068;5.198;2022-08-19T11:55:43;30.38;;;24.70;;
16880;SDS011;8557;52.068;5.198;2022-08-19T11:58:10;31.95;;;24.52;;
16880;SDS011;8557;52.068;5.198;2022-08-19T12:00:37;28.70;;;25.20;;
16880;SDS011;8557;52.068;5.198;2022-08-19T12:03:04;28.95;;;24.35;;
16880;SDS011;8557;52.068;5.198;2022-08-19T12:05:31;27.90;;;24.63;;
16880;SDS011;8557;52.068;5.198;2022-08-19T12:07:59;25.42;;;22.10;;
16880;SDS011;8557;52.068;5.198;2022-08-19T12:10:26;24.60;;;21.73;;
16880;SDS011;8557;52.068;5.198;2022-08-19T12:12:53;25.95;;;19.75;;
16880;SDS011;8557;52.068;5.198;2022-08-19T12:15:20;24.45;;;20.27;;
16880;SDS011;8557;52.068;5.198;2022-08-19T12:17:47;21.52;;;19.23;;
16880;SDS011;8557;52.068;5.198;2022-08-19T12:20:13;28.55;;;19.58;;
16880;SDS011;8557;52.068;5.198;2022-08-19T12:22:42;21.00;;;17.55;;
16880;SDS011;8557;52.068;5.198;2022-08-19T12:25:11;19.65;;;15.60;;
16880;SDS011;8557;52.068;5.198;2022-08-19T12:27:38;23.58;;;14.30;;
16880;SDS011;8557;52.068;5.198;2022-08-19T12:30:05;12.77;;;11.02;;
16880;SDS011;8557;52.068;5.198;2022-08-19T12:32:34;11.98;;;10.70;;
16880;SDS011;8557;52.068;5.198;2022-08-19T12:35:01;14.18;;;9.77;;
16880;SDS011;8557;52.068;5.198;2022-08-19T12:37:29;10.07;;;9.10;;
16880;SDS011;8557;52.068;5.198;2022-08-19T12:39:57;10.57;;;8.63;;
16880;SDS011;8557;52.068;5.198;2022-08-19T12:42:25;9.52;;;7.65;;
16880;SDS011;8557;52.068;5.198;2022-08-19T12:44:52;12.10;;;8.85;;
16880;SDS011;8557;52.068;5.198;2022-08-19T12:47:19;12.73;;;7.88;;
16880;SDS011;8557;52.068;5.198;2022-08-19T12:49:46;11.18;;;7.68;;
16880;SDS011;8557;52.068;5.198;2022-08-19T12:52:14;10.95;;;7.18;;
16880;SDS011;8557;52.068;5.198;2022-08-19T12:54:41;7.53;;;6.25;;
16880;SDS011;8557;52.068;5.198;2022-08-19T12:57:09;7.53;;;5.78;;
16880;SDS011;8557;52.068;5.198;2022-08-19T12:59:38;6.47;;;5.65;;
16880;SDS011;8557;52.068;5.198;2022-08-19T13:02:06;7.43;;;5.45;;
16880;SDS011;8557;52.068;5.198;2022-08-19T13:04:34;8.45;;;6.57;;
16880;SDS011;8557;52.068;5.198;2022-08-19T13:07:05;10.20;;;6.70;;
16880;SDS011;8557;52.068;5.198;2022-08-19T13:09:33;18.15;;;7.28;;
16880;SDS011;8557;52.068;5.198;2022-08-19T13:12:00;10.70;;;8.05;;
16880;SDS011;8557;52.068;5.198;2022-08-19T13:14:28;13.63;;;9.15;;
16880;SDS011;8557;52.068;5.198;2022-08-19T13:16:57;22.85;;;9.55;;
16880;SDS011;8557;52.068;5.198;2022-08-19T13:19:24;12.80;;;9.35;;
16880;SDS011;8557;52.068;5.198;2022-08-19T13:21:51;14.02;;;9.70;;
16880;SDS011;8557;52.068;5.198;2022-08-19T13:24:20;15.77;;;10.95;;
16880;SDS011;8557;52.068;5.198;2022-08-19T13:26:47;15.38;;;9.82;;
16880;SDS011;8557;52.068;5.198;2022-08-19T13:29:13;11.88;;;10.27;;
16880;SDS011;8557;52.068;5.198;2022-08-19T13:31:59;13.48;;;10.55;;
16880;SDS011;8557;52.068;5.198;2022-08-19T13:34:43;13.80;;;10.77;;
16880;SDS011;8557;52.068;5.198;2022-08-19T13:37:11;14.15;;;9.65;;
16880;SDS011;8557;52.068;5.198;2022-08-19T13:39:38;13.68;;;10.02;;
16880;SDS011;8557;52.068;5.198;2022-08-19T13:42:05;13.88;;;10.75;;
16880;SDS011;8557;52.068;5.198;2022-08-19T13:44:33;12.35;;;9.57;;
16880;SDS011;8557;52.068;5.198;2022-08-19T13:47:02;9.30;;;7.07;;
16880;SDS011;8557;52.068;5.198;2022-08-19T13:49:33;6.65;;;6.03;;
16880;SDS011;8557;52.068;5.198;2022-08-19T13:52:01;6.68;;;5.88;;
16880;SDS011;8557;52.068;5.198;2022-08-19T13:54:28;8.43;;;6.00;;
16880;SDS011;8557;52.068;5.198;2022-08-19T13:56:55;6.57;;;5.80;;
16880;SDS011;8557;52.068;5.198;2022-08-19T13:59:21;7.82;;;6.38;;
16880;SDS011;8557;52.068;5.198;2022-08-19T14:01:48;6.72;;;5.68;;
16880;SDS011;8557;52.068;5.198;2022-08-19T14:04:16;11.02;;;6.68;;
16880;SDS011;8557;52.068;5.198;2022-08-19T14:06:43;8.35;;;6.95;;
16880;SDS011;8557;52.068;5.198;2022-08-19T14:09:10;8.88;;;7.43;;
16880;SDS011;8557;52.068;5.198;2022-08-19T14:11:36;7.35;;;6.68;;
16880;SDS011;8557;52.068;5.198;2022-08-19T14:14:03;9.20;;;7.55;;
16880;SDS011;8557;52.068;5.198;2022-08-19T14:16:30;8.25;;;7.43;;
16880;SDS011;8557;52.068;5.198;2022-08-19T14:18:57;8.73;;;6.65;;
16880;SDS011;8557;52.068;5.198;2022-08-19T14:21:25;7.75;;;6.95;;
16880;SDS011;8557;52.068;5.198;2022-08-19T14:23:52;7.65;;;7.05;;
16880;SDS011;8557;52.068;5.198;2022-08-19T14:26:20;6.72;;;6.13;;
16880;SDS011;8557;52.068;5.198;2022-08-19T14:28:47;6.78;;;5.80;;
16880;SDS011;8557;52.068;5.198;2022-08-19T14:31:15;5.45;;;4.95;;
16880;SDS011;8557;52.068;5.198;2022-08-19T14:33:44;4.60;;;4.22;;
16880;SDS011;8557;52.068;5.198;2022-08-19T14:36:12;3.70;;;3.40;;
16880;SDS011;8557;52.068;5.198;2022-08-19T14:38:40;3.60;;;3.30;;
16880;SDS011;8557;52.068;5.198;2022-08-19T14:41:08;3.55;;;3.25;;
16880;SDS011;8557;52.068;5.198;2022-08-19T14:43:41;3.50;;;3.20;;
16880;SDS011;8557;52.068;5.198;2022-08-19T14:46:11;3.53;;;2.80;;
16880;SDS011;8557;52.068;5.198;2022-08-19T14:48:38;2.70;;;2.50;;
16880;SDS011;8557;52.068;5.198;2022-08-19T14:51:05;3.30;;;3.00;;